createdAt,value
2017-08-29T07:08:52.001Z,23.5
2017-08-29T07:19:38.841Z,24.8
2017-08-29T07:29:54.818Z,25.7
2017-08-29T07:40:11.147Z,23.4
2017-08-29T07:50:27.504Z,26.2
2017-08-29T08:00:43.582Z,22.8
2017-08-29T08:10:59.696Z,23.8
2017-08-29T08:21:15.814Z,19.9
2017-08-29T08:31:32.264Z,19.1
2017-08-29T08:41:48.297Z,19.9
2017-08-29T08:52:04.397Z,20.3
2017-08-29T09:02:20.733Z,17.5
2017-08-29T09:12:37.197Z,21.6
2017-08-29T09:22:53.039Z,18.8
2017-08-29T09:33:09.386Z,19.4
2017-08-29T09:43:25.792Z,16.3
2017-08-29T09:53:41.765Z,14.1
2017-08-29T10:03:58.035Z,17.6
2017-08-29T10:14:14.367Z,11.8
2017-08-29T10:24:30.816Z,14.0
2017-08-29T10:34:46.739Z,13.1
2017-08-29T10:45:02.827Z,14.4
2017-08-29T10:55:19.355Z,11.9
2017-08-29T11:05:35.392Z,10.7
2017-08-29T11:15:51.587Z,7.3
2017-08-29T11:26:08.022Z,7.8
2017-08-29T11:36:24.136Z,9.0
2017-08-29T11:46:40.252Z,8.3
2017-08-29T11:56:56.791Z,10.8
2017-08-29T12:07:12.935Z,8.9
2017-08-29T12:17:29.355Z,6.8
2017-08-29T12:27:45.465Z,8.8
2017-08-29T12:38:01.439Z,6.1
2017-08-29T12:48:48.375Z,4.7
2017-08-29T12:59:04.667Z,7.3
2017-08-29T13:09:20.693Z,8.8
2017-08-29T13:19:37.081Z,6.6
2017-08-29T13:29:53.168Z,6.8
2017-08-29T13:40:09.223Z,7.0
2017-08-29T13:50:25.720Z,7.8
2017-08-29T14:00:41.731Z,7.8
2017-08-29T14:10:58.067Z,6.0
2017-08-29T14:21:14.040Z,5.0
2017-08-29T14:31:30.107Z,6.2
2017-08-29T14:42:17.876Z,6.5
2017-08-29T14:52:35.538Z,6.3
2017-08-29T15:03:21.531Z,6.9
2017-08-29T15:13:37.766Z,4.4
2017-08-29T15:24:40.621Z,5.6
2017-08-29T15:35:01.780Z,7.9
2017-08-29T15:45:31.320Z,6.7
2017-08-29T15:55:52.159Z,6.9
2017-08-29T16:06:12.991Z,6.7
2017-08-29T16:16:31.132Z,8.5
2017-08-29T16:26:47.051Z,7.3
2017-08-29T16:37:03.375Z,6.2
2017-08-29T16:47:17.490Z,8.1
2017-08-29T16:57:33.968Z,7.3
2017-08-29T17:07:49.926Z,6.5
2017-08-29T17:18:06.331Z,8.4
2017-08-29T17:29:24.895Z,7.9
2017-08-29T17:39:41.017Z,8.5
2017-08-29T17:55:18.511Z,8.7
2017-08-29T18:05:34.681Z,9.1
2017-08-29T18:15:50.922Z,8.7
2017-08-29T18:26:04.410Z,7.8
2017-08-29T18:36:20.469Z,9.0
2017-08-29T18:46:36.816Z,8.7
2017-08-29T18:56:53.237Z,9.9
2017-08-29T19:07:13.541Z,10.4
2017-08-29T19:18:00.276Z,11.4
2017-08-29T19:28:16.231Z,11.0
2017-08-29T19:38:32.527Z,8.5
2017-08-29T19:48:48.885Z,10.4
2017-08-29T19:59:05.126Z,12.2
2017-08-29T20:09:21.065Z,12.2
2017-08-29T20:20:07.864Z,13.1
2017-08-29T20:30:24.286Z,10.8
2017-08-29T20:40:40.509Z,12.6
2017-08-29T20:50:56.890Z,13.1
2017-08-29T21:01:12.917Z,14.3
2017-08-29T21:11:28.902Z,17.3
2017-08-29T21:21:45.113Z,19.7
2017-08-29T21:32:00.664Z,20.9
2017-08-29T21:42:16.961Z,29.3
2017-08-29T21:52:32.747Z,23.5
2017-08-29T22:02:48.997Z,22.0
2017-08-29T22:13:05.210Z,17.7
2017-08-29T22:23:20.515Z,21.1
2017-08-29T22:33:37.034Z,20.8
2017-08-29T22:43:53.468Z,22.3
2017-08-29T22:54:09.312Z,15.3
2017-08-29T23:04:25.345Z,19.1
2017-08-29T23:14:41.977Z,17.9
2017-08-29T23:24:57.850Z,13.6
2017-08-29T23:35:44.788Z,16.7
2017-08-29T23:46:00.770Z,11.8
2017-08-29T23:56:17.024Z,11.9
